Time;durP1;ratioP1;P1;durP2;ratioP2;P2;SDS_P1;SDS_P2;PMS_P1;PMS_P2;Temp;Humidity;BMP_temperature;BMP_pressure;BME280_temperature;BME280_humidity;BME280_pressure;Samples;Min_cycle;Max_cycle;Signal;HPM_P1;HPM_P2
2020/04/18 00:00:40;;;;;;;16.7;8.1;;;;;;;15.22;63.48145;956.5965;;;;
2020/04/18 00:03:05;;;;;;;13.6;8.2;;;;;;;14.95;64.06934;956.5522;;;;
2020/04/18 00:05:30;;;;;;;14.2;7.8;;;;;;;14.69;66.14551;956.5294;;;;
2020/04/18 00:08:01;;;;;;;16.2;8.7;;;;;;;14.87;65.88184;956.5306;;;;
2020/04/18 00:12:47;;;;;;;14.6;8;;;;;;;14.72;66.77734;956.5186;;;;
2020/04/18 00:15:11;;;;;;;16.2;8.8;;;;;;;14.68;67.1084;956.466;;;;
2020/04/18 00:17:39;;;;;;;14.5;8.3;;;;;;;14.64;66.15039;956.4522;;;;
2020/04/18 00:20:04;;;;;;;21.6;9.1;;;;;;;14.56;67.49707;956.4547;;;;
2020/04/18 00:22:29;;;;;;;14.4;7.9;;;;;;;14.57;67.06934;956.4483;;;;
2020/04/18 00:24:57;;;;;;;17.4;9.5;;;;;;;14.53;68.36328;956.4786;;;;
2020/04/18 00:27:22;;;;;;;20.9;9.9;;;;;;;14.45;69.61621;956.4835;;;;
2020/04/18 00:29:49;;;;;;;20.3;10.9;;;;;;;14.44;69.19629;956.521;;;;
2020/04/18 00:32:14;;;;;;;20.8;10.5;;;;;;;14.49;68.29883;956.5317;;;;
2020/04/18 00:34:41;;;;;;;18.1;11.3;;;;;;;14.58;67.39453;956.5901;;;;
2020/04/18 00:37:06;;;;;;;23.6;11.2;;;;;;;14.41;68.27539;956.5701;;;;
2020/04/18 00:39:33;;;;;;;19.6;11.3;;;;;;;14.31;69.61816;956.5466;;;;
2020/04/18 00:41:58;;;;;;;21.4;11;;;;;;;14.24;69.25781;956.5811;;;;
2020/04/18 00:44:23;;;;;;;18.6;10.8;;;;;;;14.23;69.39551;956.5555;;;;
2020/04/18 00:46:50;;;;;;;19;10.4;;;;;;;14.29;68.82422;956.5457;;;;
2020/04/18 00:49:15;;;;;;;19.8;10.2;;;;;;;14.33;69.28418;956.55;;;;
2020/04/18 00:51:42;;;;;;;19.9;10.7;;;;;;;14.18;69.01563;956.5514;;;;
2020/04/18 00:54:07;;;;;;;22.5;11;;;;;;;13.98;69.58789;956.5899;;;;
2020/04/18 00:56:34;;;;;;;19.3;10.8;;;;;;;13.98;70.375;956.5327;;;;
2020/04/18 00:58:59;;;;;;;14.5;9.7;;;;;;;14.03;69.78125;956.4984;;;;
2020/04/18 01:01:39;;;;;;;18.8;10.5;;;;;;;14.11;69.86328;956.5654;;;;
2020/04/18 01:04:07;;;;;;;17.4;10.1;;;;;;;13.96;70.17676;956.5145;;;;
2020/04/18 01:06:34;;;;;;;18.2;10.1;;;;;;;13.92;68.99805;956.5047;;;;
2020/04/18 01:08:59;;;;;;;20;10.8;;;;;;;13.83;70.5498;956.5422;;;;
2020/04/18 01:11:30;;;;;;;19.9;11.3;;;;;;;13.85;69.17188;956.5342;;;;
2020/04/18 01:14:05;;;;;;;21.3;11.2;;;;;;;13.97;67.20898;956.5187;;;;
2020/04/18 01:16:35;;;;;;;19.8;10.5;;;;;;;13.97;66.91699;956.5759;;;;
2020/04/18 01:19:03;;;;;;;23.6;11.8;;;;;;;13.88;68.37793;956.626;;;;
2020/04/18 01:21:28;;;;;;;23.3;11.4;;;;;;;14;65.31055;956.5728;;;;
2020/04/18 01:23:54;;;;;;;18.8;11.2;;;;;;;13.92;67.40918;956.5948;;;;
2020/04/18 01:26:20;;;;;;;20.1;10.8;;;;;;;13.85;67.45605;956.5544;;;;
2020/04/18 01:28:46;;;;;;;18.9;10.8;;;;;;;13.77;68.67285;956.5316;;;;
2020/04/18 01:31:11;;;;;;;21.2;10.9;;;;;;;13.76;68.37012;956.5428;;;;
2020/04/18 01:33:37;;;;;;;20.1;10.5;;;;;;;13.72;68.52539;956.4839;;;;
2020/04/18 01:36:03;;;;;;;18.5;10.8;;;;;;;13.8;68.22559;956.5144;;;;
2020/04/18 01:38:27;;;;;;;20.4;10.9;;;;;;;13.74;69.00488;956.552;;;;
2020/04/18 01:40:52;;;;;;;21.4;10.5;;;;;;;13.72;68.0625;956.5666;;;;
2020/04/18 01:43:17;;;;;;;20.2;9.9;;;;;;;13.68;68.26465;956.5854;;;;
2020/04/18 01:45:44;;;;;;;17.3;10.9;;;;;;;13.61;69.00684;956.5396;;;;
2020/04/18 01:48:09;;;;;;;21.3;10.7;;;;;;;13.56;68.87207;956.5581;;;;
2020/04/18 01:50:34;;;;;;;18.1;10.5;;;;;;;13.45;69.3418;956.5692;;;;
2020/04/18 01:52:59;;;;;;;17;10.4;;;;;;;13.48;68.63867;956.6102;;;;
2020/04/18 01:55:24;;;;;;;19.1;10.5;;;;;;;13.43;68.74609;956.5625;;;;
2020/04/18 01:57:49;;;;;;;21.7;10.8;;;;;;;13.32;68.48633;956.5164;;;;
2020/04/18 02:00:14;;;;;;;16.2;10.4;;;;;;;13.24;69.60938;956.5421;;;;
2020/04/18 02:02:44;;;;;;;19.8;10.2;;;;;;;13.11;69.58789;956.5023;;;;
2020/04/18 02:05:12;;;;;;;17.6;9.5;;;;;;;13.2;68.96582;956.5173;;;;
2020/04/18 02:07:37;;;;;;;18.5;10.3;;;;;;;13.16;69.04004;956.5097;;;;
2020/04/18 02:12:29;;;;;;;18;9.9;;;;;;;13.23;70.46387;956.5208;;;;
2020/04/18 02:14:55;;;;;;;18.2;9.7;;;;;;;13.06;69.40625;956.5076;;;;
2020/04/18 02:17:21;;;;;;;17.6;9.7;;;;;;;13.11;71.72949;956.5433;;;;
2020/04/18 02:19:48;;;;;;;21.5;9.9;;;;;;;13.03;69.67969;956.5526;;;;
2020/04/18 02:22:13;;;;;;;16.6;9.7;;;;;;;12.95;72.28027;956.5325;;;;
2020/04/18 02:24:41;;;;;;;15.4;9.4;;;;;;;12.99;70.88867;956.541;;;;
2020/04/18 02:27:06;;;;;;;18.4;9.8;;;;;;;12.99;71.22363;956.5108;;;;
2020/04/18 02:29:31;;;;;;;17.3;9.7;;;;;;;13.01;70.67188;956.5369;;;;
2020/04/18 02:31:57;;;;;;;18.1;9.8;;;;;;;12.92;71.16504;956.5405;;;;
2020/04/18 02:34:23;;;;;;;21;10.2;;;;;;;12.86;70.18262;956.5631;;;;
2020/04/18 02:36:48;;;;;;;19.9;9.7;;;;;;;12.79;70.38086;956.6331;;;;
2020/04/18 02:39:13;;;;;;;16.5;9.4;;;;;;;12.78;70.59961;956.5923;;;;
2020/04/18 02:41:39;;;;;;;18.9;9.7;;;;;;;12.58;72.2207;956.6008;;;;
2020/04/18 02:44:04;;;;;;;17.4;9.4;;;;;;;12.69;71.38281;956.5787;;;;
2020/04/18 02:46:31;;;;;;;17.3;9.7;;;;;;;12.69;71.64941;956.555;;;;
2020/04/18 02:48:56;;;;;;;14.2;9.4;;;;;;;12.78;72.19434;956.5482;;;;
2020/04/18 02:51:21;;;;;;;16.5;9.4;;;;;;;12.7;71.22266;956.5247;;;;
2020/04/18 02:53:47;;;;;;;14.8;9.4;;;;;;;12.55;72.37695;956.5295;;;;
2020/04/18 02:56:12;;;;;;;17;9.4;;;;;;;12.57;72.4834;956.5698;;;;
2020/04/18 02:58:37;;;;;;;13.9;9.1;;;;;;;12.64;71.93066;956.5873;;;;
2020/04/18 03:01:13;;;;;;;17.6;9.8;;;;;;;12.49;71.5459;956.5929;;;;
2020/04/18 03:03:39;;;;;;;17.9;9.3;;;;;;;12.62;71.56738;956.6166;;;;
2020/04/18 03:06:04;;;;;;;19.1;9.8;;;;;;;12.42;72.05566;956.6514;;;;
2020/04/18 03:08:33;;;;;;;14;9.2;;;;;;;12.5;71.47754;956.6501;;;;
2020/04/18 03:10:58;;;;;;;15.3;9;;;;;;;12.51;72.44043;956.6569;;;;
2020/04/18 03:13:24;;;;;;;17.1;9.5;;;;;;;12.38;72.29102;956.6436;;;;
2020/04/18 03:15:51;;;;;;;18.8;9.3;;;;;;;12.19;72.70801;956.6658;;;;
2020/04/18 03:18:16;;;;;;;15;9.3;;;;;;;12.28;72.00879;956.6534;;;;
2020/04/18 03:20:41;;;;;;;16.8;9.1;;;;;;;12.38;71.82813;956.673;;;;
2020/04/18 03:23:08;;;;;;;15.8;9.2;;;;;;;12.24;72.47461;956.6656;;;;
2020/04/18 03:25:33;;;;;;;15.4;9.4;;;;;;;12.35;71.8584;956.645;;;;
2020/04/18 03:27:59;;;;;;;16.3;8.7;;;;;;;12.27;71.13867;956.6298;;;;
2020/04/18 03:30:24;;;;;;;14.9;9.1;;;;;;;12.26;70.64258;956.663;;;;
2020/04/18 03:32:52;;;;;;;18.1;8.8;;;;;;;12.35;71.56934;956.7144;;;;
2020/04/18 03:35:17;;;;;;;16.2;8.1;;;;;;;12.22;70.69238;956.7683;;;;
2020/04/18 03:37:44;;;;;;;16.1;8.3;;;;;;;12.34;70.65332;956.7961;;;;
2020/04/18 03:40:09;;;;;;;14.7;8.4;;;;;;;12.23;70.86719;956.8507;;;;
2020/04/18 03:42:36;;;;;;;15.2;9.1;;;;;;;12.28;71.06055;956.9272;;;;
2020/04/18 03:45:01;;;;;;;19.3;9.4;;;;;;;12.28;70.7373;956.9631;;;;
2020/04/18 03:47:26;;;;;;;15.2;8.3;;;;;;;12.17;71.54004;956.9858;;;;
2020/04/18 03:49:52;;;;;;;13.5;9.3;;;;;;;12.12;71.13867;956.9497;;;;
2020/04/18 03:52:17;;;;;;;16.2;9;;;;;;;11.92;71.85645;956.9559;;;;
2020/04/18 03:54:44;;;;;;;16.2;9.1;;;;;;;11.98;72.12012;956.9533;;;;
2020/04/18 03:57:09;;;;;;;19.8;9.7;;;;;;;11.94;73.06055;956.975;;;;
2020/04/18 03:59:34;;;;;;;14.1;9.1;;;;;;;11.91;72.59375;956.9878;;;;
2020/04/18 04:02:28;;;;;;;16.5;9.2;;;;;;;11.84;73.94434;957.0192;;;;
2020/04/18 04:04:53;;;;;;;15;9.3;;;;;;;11.84;74.41699;957.0331;;;;
2020/04/18 04:07:19;;;;;;;15.4;9.1;;;;;;;11.88;74.45996;957.0609;;;;
2020/04/18 04:09:44;;;;;;;15.5;9.5;;;;;;;11.7;75.70996;957.0531;;;;
2020/04/18 04:12:09;;;;;;;14.9;9.4;;;;;;;11.72;75.1709;957.0728;;;;
2020/04/18 04:14:34;;;;;;;13.2;8.6;;;;;;;11.9;73.6875;957.0928;;;;
2020/04/18 04:16:59;;;;;;;18.4;9.4;;;;;;;11.75;75.03809;957.0739;;;;
2020/04/18 04:19:25;;;;;;;13.3;9.3;;;;;;;11.86;73.73926;957.0492;;;;
2020/04/18 04:21:50;;;;;;;14.3;9.4;;;;;;;11.9;74.17285;957.0014;;;;
2020/04/18 04:24:19;;;;;;;14.7;9.2;;;;;;;11.91;74.90332;956.9698;;;;
2020/04/18 04:26:44;;;;;;;14.3;9.2;;;;;;;12.08;73.51074;957.0047;;;;
2020/04/18 04:29:11;;;;;;;15.2;9.7;;;;;;;12.05;75.43457;956.9807;;;;
2020/04/18 04:31:42;;;;;;;14.5;9.7;;;;;;;11.88;75.86621;957.0267;;;;
2020/04/18 04:34:07;;;;;;;18;9.4;;;;;;;11.88;76.14355;957.0422;;;;
2020/04/18 04:36:32;;;;;;;15.5;9;;;;;;;11.93;75.57715;957.1021;;;;
2020/04/18 04:38:59;;;;;;;13.7;9.3;;;;;;;11.96;74.98047;957.1252;;;;
2020/04/18 04:41:26;;;;;;;17.7;9;;;;;;;11.88;73.96191;957.1573;;;;
2020/04/18 04:43:51;;;;;;;14.4;9.2;;;;;;;12;74.53613;957.1479;;;;
2020/04/18 04:46:17;;;;;;;18;9.3;;;;;;;11.95;74.22852;957.1833;;;;
2020/04/18 04:48:41;;;;;;;14.3;9;;;;;;;12.01;74.79297;957.2377;;;;
2020/04/18 04:51:19;;;;;;;14.8;8.8;;;;;;;12.11;74.56738;957.2851;;;;
2020/04/18 04:53:32;;;;;;;13.5;8.9;;;;;;;12.14;73.72852;957.2748;;;;
2020/04/18 04:56:00;;;;;;;12.2;8.3;;;;;;;12.19;74.25781;957.3153;;;;
2020/04/18 04:58:25;;;;;;;13.2;8.2;;;;;;;12.25;73.82813;957.3224;;;;
2020/04/18 05:00:52;;;;;;;14.3;8.5;;;;;;;12.28;72.49414;957.3267;;;;
2020/04/18 05:03:18;;;;;;;12.3;8.1;;;;;;;12.18;71.4375;957.3677;;;;
2020/04/18 05:05:45;;;;;;;13;8.3;;;;;;;12.29;72.6123;957.4202;;;;
2020/04/18 05:08:10;;;;;;;13.7;7.7;;;;;;;12.32;72.44336;957.3714;;;;
2020/04/18 05:10:37;;;;;;;14.9;8.8;;;;;;;12.4;72.96387;957.394;;;;
2020/04/18 05:13:02;;;;;;;14;8.7;;;;;;;12.45;73.05371;957.3627;;;;
2020/04/18 05:15:27;;;;;;;17.1;8.9;;;;;;;12.4;71.33398;957.3981;;;;
2020/04/18 05:17:52;;;;;;;15.2;8.2;;;;;;;12.47;71.19629;957.4664;;;;
2020/04/18 05:20:18;;;;;;;11.6;8.3;;;;;;;12.55;72.6084;957.4278;;;;
2020/04/18 05:22:43;;;;;;;13.7;8.1;;;;;;;12.71;71.4668;957.4257;;;;
2020/04/18 05:25:08;;;;;;;13.5;8.1;;;;;;;12.61;71.86719;957.448;;;;
2020/04/18 05:27:33;;;;;;;14.4;8.3;;;;;;;12.67;73.4043;957.4885;;;;
2020/04/18 05:29:58;;;;;;;16.3;8.4;;;;;;;12.67;72.87207;957.4059;;;;
2020/04/18 05:32:23;;;;;;;15.7;8.7;;;;;;;12.7;72.78418;957.4192;;;;
2020/04/18 05:34:48;;;;;;;14.7;8.4;;;;;;;12.86;71.7793;957.4373;;;;
2020/04/18 05:37:13;;;;;;;17.4;8.8;;;;;;;12.69;71.96094;957.4364;;;;
2020/04/18 05:39:38;;;;;;;15;8.6;;;;;;;12.76;71.33691;957.4409;;;;
2020/04/18 05:42:03;;;;;;;12.6;8.3;;;;;;;12.85;70.89844;957.4947;;;;
2020/04/18 05:44:28;;;;;;;12;8.3;;;;;;;12.95;70.33594;957.5287;;;;
2020/04/18 05:46:54;;;;;;;11.8;8.1;;;;;;;13.01;70.19727;957.5471;;;;
2020/04/18 05:49:19;;;;;;;13.8;8.2;;;;;;;12.99;70.67969;957.5308;;;;
2020/04/18 05:51:44;;;;;;;12.1;7.7;;;;;;;13.09;70.24414;957.5944;;;;
2020/04/18 05:54:09;;;;;;;12.1;8;;;;;;;13.11;70.83887;957.5078;;;;
2020/04/18 05:56:34;;;;;;;15.3;7.9;;;;;;;13.18;71.45117;957.5433;;;;
2020/04/18 05:58:59;;;;;;;13.5;7.8;;;;;;;13.28;70.01953;957.5629;;;;
2020/04/18 06:01:24;;;;;;;10.8;7.6;;;;;;;13.38;68.69336;957.5267;;;;
2020/04/18 06:03:49;;;;;;;12.4;8;;;;;;;13.41;69.13867;957.5964;;;;
2020/04/18 06:06:14;;;;;;;13.3;7.9;;;;;;;13.38;69.33008;957.6855;;;;
2020/04/18 06:08:39;;;;;;;13.2;7.8;;;;;;;13.45;68.76172;957.6792;;;;
2020/04/18 06:11:06;;;;;;;12.9;7.4;;;;;;;13.68;68.84375;957.6778;;;;
2020/04/18 06:16:07;;;;;;;12.9;7.5;;;;;;;13.8;66.93848;957.7258;;;;
2020/04/18 06:18:23;;;;;;;13.7;7.3;;;;;;;13.85;67.36328;957.8055;;;;
2020/04/18 06:20:49;;;;;;;13.6;8.1;;;;;;;13.86;68.09668;957.8448;;;;
2020/04/18 06:23:14;;;;;;;12.7;7.7;;;;;;;13.94;66.90332;957.8918;;;;
2020/04/18 06:25:45;;;;;;;14.1;7.5;;;;;;;14;66.20313;957.8723;;;;
2020/04/18 06:28:14;;;;;;;12;7.7;;;;;;;13.85;66.15723;957.8453;;;;
2020/04/18 06:30:39;;;;;;;12.7;7.9;;;;;;;14.03;65.75488;957.9377;;;;
2020/04/18 06:33:08;;;;;;;16.5;8;;;;;;;14.18;68.29688;957.8906;;;;
2020/04/18 06:35:37;;;;;;;15.2;7.7;;;;;;;14.22;66.45801;957.9105;;;;
2020/04/18 06:38:02;;;;;;;13.4;8;;;;;;;14.03;66.10352;957.8656;;;;
2020/04/18 06:40:29;;;;;;;13.6;7.4;;;;;;;14.3;65.63281;957.9048;;;;
2020/04/18 06:42:54;;;;;;;14.5;7.8;;;;;;;14.14;65.25098;957.9183;;;;
2020/04/18 06:45:19;;;;;;;12.9;7.7;;;;;;;14.21;65.43359;957.9023;;;;
2020/04/18 06:47:46;;;;;;;15.2;8;;;;;;;14.28;65.29492;957.9573;;;;
2020/04/18 06:50:11;;;;;;;12.3;7.1;;;;;;;14.65;64.24512;957.9966;;;;
2020/04/18 06:52:37;;;;;;;14.8;7;;;;;;;14.46;63.9502;957.9839;;;;
2020/04/18 06:55:02;;;;;;;11.3;7.4;;;;;;;14.22;65.07715;957.9506;;;;
2020/04/18 06:57:27;;;;;;;10.9;6.9;;;;;;;14.22;65.11035;957.9442;;;;
2020/04/18 06:59:54;;;;;;;11.6;7.2;;;;;;;14.44;64.50488;957.9583;;;;
2020/04/18 07:02:20;;;;;;;11.9;6.5;;;;;;;14.57;64.59473;957.9557;;;;
2020/04/18 07:04:45;;;;;;;9;6.2;;;;;;;14.54;64.04395;957.9792;;;;
2020/04/18 07:07:14;;;;;;;13.4;6.6;;;;;;;14.67;63.65625;958.0377;;;;
2020/04/18 07:09:39;;;;;;;9.6;6.5;;;;;;;14.91;63.09766;958.0328;;;;
2020/04/18 07:12:08;;;;;;;10.4;6.6;;;;;;;15.07;63.46973;958.0022;;;;
2020/04/18 07:14:33;;;;;;;14.1;6.6;;;;;;;14.98;63.09668;957.9974;;;;
2020/04/18 07:17:01;;;;;;;15.2;6.8;;;;;;;15.04;64.07031;957.9801;;;;
2020/04/18 07:19:26;;;;;;;10.3;6.4;;;;;;;15.22;63.02637;957.9479;;;;
2020/04/18 07:21:54;;;;;;;12.7;6.6;;;;;;;15.32;62.26172;957.9397;;;;
2020/04/18 07:24:19;;;;;;;14.2;6.5;;;;;;;15.32;62.0752;957.9027;;;;
2020/04/18 07:26:47;;;;;;;11.1;6.5;;;;;;;15.53;61.9209;957.9136;;;;
2020/04/18 07:29:12;;;;;;;11.9;6.4;;;;;;;15.77;61.55664;957.9363;;;;
2020/04/18 07:31:37;;;;;;;10.4;6.6;;;;;;;15.95;61.02344;957.9559;;;;
2020/04/18 07:34:04;;;;;;;10.3;6.3;;;;;;;16.08;60.50586;957.9741;;;;
2020/04/18 07:36:29;;;;;;;11.9;6.5;;;;;;;16.26;59.5625;957.9656;;;;
2020/04/18 07:38:57;;;;;;;9.8;5.5;;;;;;;16.49;60.19922;957.9735;;;;
2020/04/18 07:41:22;;;;;;;12.1;6;;;;;;;16.31;59.30078;957.9828;;;;
2020/04/18 07:43:51;;;;;;;12.3;6.3;;;;;;;16.48;58.83398;957.9963;;;;
2020/04/18 07:46:19;;;;;;;11.8;6.4;;;;;;;16.76;58.42773;958.0417;;;;
2020/04/18 07:48:44;;;;;;;12.6;6.2;;;;;;;16.86;58.65039;958.0764;;;;
2020/04/18 07:51:09;;;;;;;12.9;6.2;;;;;;;16.83;57.81836;958.075;;;;
2020/04/18 07:53:34;;;;;;;11.8;6.1;;;;;;;16.95;59.21289;958.0895;;;;
2020/04/18 07:56:00;;;;;;;10.3;5.5;;;;;;;17.01;56.86035;958.0709;;;;
2020/04/18 07:58:25;;;;;;;13.2;6;;;;;;;17.18;56.73047;958.0844;;;;
2020/04/18 08:00:50;;;;;;;9.5;5;;;;;;;17.11;56.11426;958.09;;;;
2020/04/18 08:03:15;;;;;;;10;5.2;;;;;;;17.09;55.67969;958.1181;;;;
2020/04/18 08:05:40;;;;;;;10.1;5.1;;;;;;;17.11;55.59961;958.074;;;;
2020/04/18 08:08:11;;;;;;;9.3;4.7;;;;;;;17.14;55.86133;958.0808;;;;
2020/04/18 08:10:36;;;;;;;9.2;4.9;;;;;;;17.23;55.39355;958.0313;;;;
2020/04/18 08:13:01;;;;;;;10.5;5;;;;;;;17.18;55.42188;958.0474;;;;
2020/04/18 08:15:30;;;;;;;10.6;5.2;;;;;;;17.16;55.85254;958.0573;;;;
2020/04/18 08:17:56;;;;;;;11.7;5.5;;;;;;;17.22;56.38574;958.027;;;;
2020/04/18 08:20:22;;;;;;;10.4;5.4;;;;;;;17.45;55.94824;958.0619;;;;
2020/04/18 08:22:48;;;;;;;8.9;5.4;;;;;;;17.53;55.58301;958.0605;;;;
2020/04/18 08:25:19;;;;;;;10.3;5.5;;;;;;;17.66;55.92676;958.0647;;;;
2020/04/18 08:27:46;;;;;;;8.7;5.5;;;;;;;17.56;55.29492;958.0675;;;;
2020/04/18 08:30:12;;;;;;;9.5;5.3;;;;;;;17.66;55.4707;958.0994;;;;
2020/04/18 08:32:40;;;;;;;11.5;5.3;;;;;;;17.45;54.7666;958.1057;;;;
2020/04/18 08:35:05;;;;;;;9.4;4.9;;;;;;;17.63;54.83594;958.1573;;;;
2020/04/18 08:37:31;;;;;;;8.1;4.9;;;;;;;17.48;54.54883;958.1761;;;;
2020/04/18 08:39:56;;;;;;;10.1;5.2;;;;;;;17.58;55.08594;958.1783;;;;
2020/04/18 08:42:26;;;;;;;12.5;5.2;;;;;;;17.78;54.47949;958.1552;;;;
2020/04/18 08:44:51;;;;;;;9.6;5.1;;;;;;;17.74;54.4873;958.1298;;;;
2020/04/18 08:47:17;;;;;;;8.4;5.8;;;;;;;17.8;54.92773;958.099;;;;
2020/04/18 08:49:42;;;;;;;12;5.1;;;;;;;18.1;54.2959;958.0714;;;;
2020/04/18 08:52:07;;;;;;;12.7;5.9;;;;;;;18.02;55.16504;958.0854;;;;
2020/04/18 08:54:32;;;;;;;10.2;5;;;;;;;17.98;54.3877;958.0677;;;;
2020/04/18 08:56:58;;;;;;;11.2;5.2;;;;;;;17.94;54.57031;958.0476;;;;
2020/04/18 08:59:23;;;;;;;10.9;5.3;;;;;;;18;54.31934;958.0561;;;;
2020/04/18 09:01:48;;;;;;;11;5.4;;;;;;;18.19;53.65234;958.0959;;;;
2020/04/18 09:04:13;;;;;;;9.9;5.5;;;;;;;18.5;53.58398;958.1401;;;;
2020/04/18 09:06:39;;;;;;;10.2;5;;;;;;;18.62;53.18848;958.1937;;;;
2020/04/18 09:09:04;;;;;;;9.3;5.3;;;;;;;18.6;53.70215;958.1891;;;;
2020/04/18 09:11:29;;;;;;;10.3;6;;;;;;;18.6;53.41992;958.17;;;;
2020/04/18 09:13:54;;;;;;;8.3;5.5;;;;;;;18.56;53.36914;958.1631;;;;
2020/04/18 09:16:19;;;;;;;10.1;6;;;;;;;18.51;54.20605;958.1383;;;;
2020/04/18 09:18:44;;;;;;;10.1;5.7;;;;;;;18.54;54.16309;958.0933;;;;
2020/04/18 09:21:09;;;;;;;11;5.7;;;;;;;18.51;54.92188;958.1086;;;;
2020/04/18 09:23:34;;;;;;;9.8;5.6;;;;;;;18.64;54.29297;958.012;;;;
2020/04/18 09:25:59;;;;;;;13.4;6.2;;;;;;;18.52;54.32617;958.0309;;;;
2020/04/18 09:28:25;;;;;;;13;6;;;;;;;18.4;54.89746;958.0352;;;;
2020/04/18 09:30:50;;;;;;;11.2;6.4;;;;;;;18.4;55.0957;958.0419;;;;
2020/04/18 09:33:15;;;;;;;10.8;6;;;;;;;18.35;55.82813;958.0012;;;;
2020/04/18 09:35:40;;;;;;;11.4;5.9;;;;;;;18.47;55.05762;957.9913;;;;
2020/04/18 09:38:05;;;;;;;9.4;5.8;;;;;;;18.6;55.49609;957.9519;;;;
2020/04/18 09:40:30;;;;;;;16.2;6.5;;;;;;;18.51;54.875;957.9922;;;;
2020/04/18 09:42:55;;;;;;;13.8;6.8;;;;;;;18.67;54.32031;958.0214;;;;
2020/04/18 09:45:20;;;;;;;11.7;6.3;;;;;;;18.74;54.09473;957.9908;;;;
2020/04/18 09:47:45;;;;;;;12;6.6;;;;;;;19.16;53.07813;957.9838;;;;
2020/04/18 09:50:10;;;;;;;10.9;6.3;;;;;;;19.11;53.23535;957.9508;;;;
2020/04/18 09:52:39;;;;;;;11.9;6.5;;;;;;;19.12;53.0498;957.9219;;;;
2020/04/18 09:55:08;;;;;;;11.8;6.2;;;;;;;19.24;53.26367;957.9422;;;;
2020/04/18 09:57:33;;;;;;;13.6;6.8;;;;;;;19.32;53.02539;957.9381;;;;
2020/04/18 09:59:59;;;;;;;14.7;6.7;;;;;;;19.33;52.93555;957.938;;;;
2020/04/18 10:02:24;;;;;;;12.4;6.7;;;;;;;19.21;52.9082;957.9221;;;;
2020/04/18 10:04:51;;;;;;;11;6.2;;;;;;;19.57;52.51563;957.8438;;;;
2020/04/18 10:07:16;;;;;;;10.9;5.7;;;;;;;19.72;52.66406;957.8558;;;;
2020/04/18 10:09:42;;;;;;;13.4;6.6;;;;;;;19.9;51.53223;957.8003;;;;
2020/04/18 10:12:08;;;;;;;15.2;7;;;;;;;19.91;50.94531;957.7636;;;;
2020/04/18 10:14:33;;;;;;;14.5;6.7;;;;;;;20.16;51.53906;957.7633;;;;
2020/04/18 10:16:58;;;;;;;13.3;5.8;;;;;;;20.31;51.95703;957.798;;;;
2020/04/18 10:19:23;;;;;;;13.1;6.7;;;;;;;20.38;51.09375;957.7594;;;;
2020/04/18 10:21:50;;;;;;;15.2;6.7;;;;;;;20.45;50.23145;957.7527;;;;
2020/04/18 10:24:15;;;;;;;11.6;6.3;;;;;;;20.37;50.19922;957.7728;;;;
2020/04/18 10:26:44;;;;;;;11.1;6.2;;;;;;;20.44;50.5127;957.7911;;;;
2020/04/18 10:29:09;;;;;;;14.3;6.3;;;;;;;20.56;49.81934;957.7682;;;;
2020/04/18 10:31:34;;;;;;;11.6;6.2;;;;;;;20.6;49.85938;957.7456;;;;
2020/04/18 10:33:59;;;;;;;13.6;6.7;;;;;;;20.48;50.3877;957.7645;;;;
2020/04/18 10:36:25;;;;;;;13.5;6.8;;;;;;;20.42;50.5918;957.7468;;;;
2020/04/18 10:38:51;;;;;;;11.9;7.7;;;;;;;20.4;50.43848;957.7084;;;;
2020/04/18 10:41:16;;;;;;;13.7;7;;;;;;;20.58;50.05859;957.7494;;;;
2020/04/18 10:43:43;;;;;;;14;6.7;;;;;;;20.73;49.33203;957.7516;;;;
2020/04/18 10:46:08;;;;;;;18;6.7;;;;;;;21.02;49.10547;957.7453;;;;
2020/04/18 10:48:35;;;;;;;13.2;7.1;;;;;;;21.01;48.82129;957.6853;;;;
2020/04/18 10:51:00;;;;;;;12.8;7.2;;;;;;;20.78;48.91309;957.6627;;;;
2020/04/18 10:53:25;;;;;;;15.3;7;;;;;;;20.96;48.27441;957.6682;;;;
2020/04/18 10:55:51;;;;;;;16.8;7.2;;;;;;;21.04;47.87012;957.6578;;;;
2020/04/18 10:58:16;;;;;;;15.2;7;;;;;;;21.24;47.85645;957.6255;;;;
2020/04/18 11:00:41;;;;;;;12.7;6.9;;;;;;;21.17;47.53027;957.658;;;;
2020/04/18 11:03:06;;;;;;;15.7;7.5;;;;;;;21.2;48.20508;957.6041;;;;
2020/04/18 11:05:31;;;;;;;13.7;7.5;;;;;;;21.3;46.5293;957.5701;;;;
2020/04/18 11:07:56;;;;;;;16.1;7.4;;;;;;;21.11;46.94629;957.546;;;;
2020/04/18 11:10:21;;;;;;;13.4;7;;;;;;;21.24;45.89844;957.4637;;;;
2020/04/18 11:12:46;;;;;;;14.6;7.4;;;;;;;21.33;46.01367;957.5005;;;;
2020/04/18 11:15:11;;;;;;;14;7.3;;;;;;;21.26;45.66504;957.4465;;;;
2020/04/18 11:17:36;;;;;;;15.6;7.3;;;;;;;21.57;44.6582;957.5158;;;;
2020/04/18 11:20:01;;;;;;;16.5;6.5;;;;;;;21.49;44.95801;957.4623;;;;
2020/04/18 11:22:27;;;;;;;13.3;6.9;;;;;;;21.74;42.62109;957.4953;;;;
2020/04/18 11:24:52;;;;;;;12.4;6.4;;;;;;;21.63;41.77148;957.4752;;;;
2020/04/18 11:27:17;;;;;;;15.7;6.2;;;;;;;21.63;41.7959;957.4387;;;;
2020/04/18 11:29:43;;;;;;;13.9;6.6;;;;;;;21.67;39.99219;957.4005;;;;
2020/04/18 11:32:08;;;;;;;14.1;6.9;;;;;;;21.77;39.50684;957.4453;;;;
2020/04/18 11:34:34;;;;;;;16.8;7.3;;;;;;;21.87;39.97559;957.3557;;;;
2020/04/18 11:36:59;;;;;;;12.9;6.9;;;;;;;21.96;39.38184;957.4086;;;;
2020/04/18 11:39:27;;;;;;;14.4;6.6;;;;;;;22.15;38.41797;957.3415;;;;
2020/04/18 11:41:52;;;;;;;16;6.1;;;;;;;22.24;37.86914;957.3368;;;;
2020/04/18 11:44:17;;;;;;;19.8;6.4;;;;;;;22.24;39.74902;957.3724;;;;
2020/04/18 11:46:44;;;;;;;14.9;5.6;;;;;;;22.33;40.11328;957.3122;;;;
2020/04/18 11:49:09;;;;;;;15.9;5.9;;;;;;;22.45;39.42578;957.2751;;;;
2020/04/18 11:51:35;;;;;;;12.6;5.3;;;;;;;22.68;40.81836;957.2491;;;;
2020/04/18 11:54:00;;;;;;;14.7;6.1;;;;;;;22.63;40.11523;957.2258;;;;
2020/04/18 11:56:25;;;;;;;15;6.1;;;;;;;22.59;40.21777;957.1591;;;;
2020/04/18 11:58:50;;;;;;;13.1;5.9;;;;;;;22.76;39.75977;957.1731;;;;
2020/04/18 12:01:16;;;;;;;15.7;7.5;;;;;;;22.71;40.59473;957.1693;;;;
2020/04/18 12:03:40;;;;;;;13.1;7.4;;;;;;;22.55;40.60547;957.1434;;;;
2020/04/18 12:06:06;;;;;;;14.8;6.8;;;;;;;22.46;41.98047;957.1387;;;;
2020/04/18 12:08:31;;;;;;;13;6.9;;;;;;;22.61;41.28516;957.0955;;;;
2020/04/18 12:10:58;;;;;;;14.9;6;;;;;;;22.79;40.40234;957.1312;;;;
2020/04/18 12:13:23;;;;;;;14.2;5.7;;;;;;;22.9;39.44141;957.1412;;;;
2020/04/18 12:15:49;;;;;;;11.6;5.1;;;;;;;22.8;38.77051;957.1172;;;;
2020/04/18 12:18:14;;;;;;;15.2;5.4;;;;;;;22.56;38.53613;957.0832;;;;
2020/04/18 12:20:41;;;;;;;11.1;5;;;;;;;22.74;40.04199;957.1085;;;;
2020/04/18 12:23:06;;;;;;;13.2;6;;;;;;;22.77;39.00391;957.046;;;;
2020/04/18 12:25:31;;;;;;;14.8;5.5;;;;;;;23.04;39.01563;956.9938;;;;
2020/04/18 12:27:56;;;;;;;9.7;5.1;;;;;;;22.97;39.53027;957.0145;;;;
2020/04/18 12:30:21;;;;;;;11.2;5.6;;;;;;;23;38.71582;957.0192;;;;
2020/04/18 12:32:46;;;;;;;14.7;5.7;;;;;;;22.85;38.99805;957.0573;;;;
2020/04/18 12:35:11;;;;;;;12.5;5.8;;;;;;;23.09;39.20996;957.0602;;;;
2020/04/18 12:37:36;;;;;;;12.4;4.8;;;;;;;22.95;38.62793;957.022;;;;
2020/04/18 12:40:01;;;;;;;13;4.7;;;;;;;22.9;37.78418;957.0447;;;;
2020/04/18 12:42:26;;;;;;;10.4;4.2;;;;;;;22.77;38.74414;956.9702;;;;
2020/04/18 12:44:51;;;;;;;9.3;4.7;;;;;;;22.67;40.00098;956.9816;;;;
2020/04/18 12:47:16;;;;;;;11.5;4.3;;;;;;;22.92;37.69043;956.9005;;;;
2020/04/18 12:49:43;;;;;;;11.2;4.3;;;;;;;22.82;37.78906;956.9078;;;;
2020/04/18 12:52:09;;;;;;;15.1;4.2;;;;;;;23.21;37.83398;956.853;;;;
2020/04/18 12:54:35;;;;;;;11.6;4.5;;;;;;;23.43;37.61621;956.848;;;;
2020/04/18 12:57:00;;;;;;;10.6;4;;;;;;;24.07;38.66699;956.8792;;;;
2020/04/18 12:59:27;;;;;;;15;4.2;;;;;;;24.33;36.06445;956.7605;;;;
2020/04/18 13:01:52;;;;;;;8.4;3.9;;;;;;;24.74;35.00391;956.7629;;;;
2020/04/18 13:04:17;;;;;;;12.7;3.9;;;;;;;24.97;34.52246;956.7642;;;;
2020/04/18 13:06:42;;;;;;;14;4.7;;;;;;;23.92;36.33984;956.7036;;;;
2020/04/18 13:09:07;;;;;;;11.6;3.8;;;;;;;23.78;36.20996;956.668;;;;
2020/04/18 13:11:32;;;;;;;13.7;4.2;;;;;;;23.58;37.13086;956.6702;;;;
2020/04/18 13:13:57;;;;;;;12.8;4.2;;;;;;;23.51;36.95898;956.7037;;;;
2020/04/18 13:16:22;;;;;;;11.8;4.3;;;;;;;23.6;37.19141;956.7086;;;;
2020/04/18 13:18:48;;;;;;;10.1;3.6;;;;;;;23.34;38.37793;956.7123;;;;
2020/04/18 13:21:13;;;;;;;10.1;3.6;;;;;;;23.28;37.25977;956.6478;;;;
2020/04/18 13:23:40;;;;;;;10.5;4;;;;;;;22.97;37.8252;956.6718;;;;
2020/04/18 13:26:06;;;;;;;10.2;3.7;;;;;;;23.09;37.71777;956.6445;;;;
2020/04/18 13:28:33;;;;;;;10;3.7;;;;;;;22.99;38.05176;956.6878;;;;
2020/04/18 13:30:58;;;;;;;11.3;3.6;;;;;;;22.9;37.87988;956.6622;;;;
2020/04/18 13:33:23;;;;;;;10.9;3.6;;;;;;;22.76;38.51758;956.6729;;;;
2020/04/18 13:35:48;;;;;;;11.8;3.7;;;;;;;22.78;38.88672;956.7079;;;;
2020/04/18 13:38:15;;;;;;;11.6;3.9;;;;;;;22.52;39.91602;956.6516;;;;
2020/04/18 13:40:40;;;;;;;12.2;3.6;;;;;;;22.4;40.67383;956.6224;;;;
2020/04/18 13:43:06;;;;;;;12.2;3.9;;;;;;;22.39;40.98145;956.6242;;;;
2020/04/18 13:45:32;;;;;;;14.7;3.5;;;;;;;22.42;40.4873;956.6392;;;;
2020/04/18 13:47:59;;;;;;;10.2;3.3;;;;;;;22.45;41.12793;956.5983;;;;
2020/04/18 13:50:24;;;;;;;10.6;3.7;;;;;;;22.35;42.27734;956.611;;;;
2020/04/18 13:52:49;;;;;;;12.5;3.5;;;;;;;22.37;41.79492;956.6624;;;;
2020/04/18 13:55:14;;;;;;;12.7;3.3;;;;;;;22.16;42.17676;956.6992;;;;
2020/04/18 13:57:39;;;;;;;11.8;3.8;;;;;;;22.23;41.87598;956.7349;;;;
2020/04/18 14:00:04;;;;;;;10.2;3.8;;;;;;;22.02;43.45215;956.7355;;;;
2020/04/18 14:02:30;;;;;;;11.5;3.4;;;;;;;21.87;43.73145;956.7541;;;;
2020/04/18 14:04:55;;;;;;;9.6;3.5;;;;;;;22;43.5791;956.7983;;;;
2020/04/18 14:07:22;;;;;;;12.7;3.5;;;;;;;21.89;45.64746;956.877;;;;
2020/04/18 14:09:47;;;;;;;11.1;3.4;;;;;;;21.71;44.9209;956.932;;;;
2020/04/18 14:12:14;;;;;;;7.1;2.6;;;;;;;21.3;46.54102;956.8422;;;;